sensor_id;sensor_type;location;lat;lon;timestamp;P1;durP1;ratioP1;P2;durP2;ratioP2
57778;SDS011;43608;49.486;9.640;2023-06-22T00:00:04;3.38;;;2.85;;
57778;SDS011;43608;49.486;9.640;2023-06-22T00:00:41;3.28;;;2.90;;
57778;SDS011;43608;49.486;9.640;2023-06-22T00:01:12;3.50;;;3.10;;
57778;SDS011;43608;49.486;9.640;2023-06-22T00:01:42;3.65;;;3.22;;
57778;SDS011;43608;49.486;9.640;2023-06-22T00:02:13;3.90;;;3.10;;
57778;SDS011;43608;49.486;9.640;2023-06-22T00:02:43;3.42;;;2.95;;
57778;SDS011;43608;49.486;9.640;2023-06-22T00:03:13;3.95;;;3.22;;
57778;SDS011;43608;49.486;9.640;2023-06-22T00:03:44;4.07;;;3.40;;
57778;SDS011;43608;49.486;9.640;2023-06-22T00:04:14;3.70;;;3.30;;
57778;SDS011;43608;49.486;9.640;2023-06-22T00:04:44;4.38;;;3.70;;
57778;SDS011;43608;49.486;9.640;2023-06-22T00:05:15;4.95;;;3.67;;
57778;SDS011;43608;49.486;9.640;2023-06-22T00:05:45;6.43;;;4.45;;
57778;SDS011;43608;49.486;9.640;2023-06-22T00:06:16;6.45;;;4.70;;
57778;SDS011;43608;49.486;9.640;2023-06-22T00:06:47;7.32;;;4.57;;
57778;SDS011;43608;49.486;9.640;2023-06-22T00:07:17;5.65;;;4.72;;
57778;SDS011;43608;49.486;9.640;2023-06-22T00:07:47;8.45;;;4.68;;
57778;SDS011;43608;49.486;9.640;2023-06-22T00:08:18;9.88;;;5.30;;
57778;SDS011;43608;49.486;9.640;2023-06-22T00:08:49;8.20;;;5.28;;
57778;SDS011;43608;49.486;9.640;2023-06-22T00:09:19;9.52;;;5.25;;
57778;SDS011;43608;49.486;9.640;2023-06-22T00:09:49;7.65;;;5.20;;
57778;SDS011;43608;49.486;9.640;2023-06-22T00:10:20;8.55;;;5.35;;
57778;SDS011;43608;49.486;9.640;2023-06-22T00:10:50;7.15;;;5.20;;
57778;SDS011;43608;49.486;9.640;2023-06-22T00:11:20;6.82;;;5.45;;
57778;SDS011;43608;49.486;9.640;2023-06-22T00:11:51;7.22;;;5.10;;
57778;SDS011;43608;49.486;9.640;2023-06-22T00:12:21;7.43;;;5.30;;
57778;SDS011;43608;49.486;9.640;2023-06-22T00:12:51;7.57;;;5.13;;
57778;SDS011;43608;49.486;9.640;2023-06-22T00:13:22;7.32;;;5.32;;
57778;SDS011;43608;49.486;9.640;2023-06-22T00:13:52;5.97;;;5.22;;
57778;SDS011;43608;49.486;9.640;2023-06-22T00:14:22;6.07;;;5.15;;
57778;SDS011;43608;49.486;9.640;2023-06-22T00:14:53;5.90;;;4.60;;
57778;SDS011;43608;49.486;9.640;2023-06-22T00:15:23;6.35;;;4.60;;
57778;SDS011;43608;49.486;9.640;2023-06-22T00:15:53;6.75;;;4.53;;
57778;SDS011;43608;49.486;9.640;2023-06-22T00:16:24;5.03;;;4.53;;
57778;SDS011;43608;49.486;9.640;2023-06-22T00:16:54;5.10;;;4.60;;
57778;SDS011;43608;49.486;9.640;2023-06-22T00:17:27;5.65;;;4.32;;
57778;SDS011;43608;49.486;9.640;2023-06-22T00:17:57;5.70;;;4.55;;
57778;SDS011;43608;49.486;9.640;2023-06-22T00:18:28;4.57;;;4.18;;
57778;SDS011;43608;49.486;9.640;2023-06-22T00:19:00;4.93;;;4.15;;
57778;SDS011;43608;49.486;9.640;2023-06-22T00:19:32;4.88;;;4.10;;
57778;SDS011;43608;49.486;9.640;2023-06-22T00:20:05;4.30;;;3.90;;
57778;SDS011;43608;49.486;9.640;2023-06-22T00:20:36;4.47;;;3.88;;
57778;SDS011;43608;49.486;9.640;2023-06-22T00:21:07;4.43;;;3.90;;
57778;SDS011;43608;49.486;9.640;2023-06-22T00:21:38;4.20;;;3.80;;
57778;SDS011;43608;49.486;9.640;2023-06-22T00:22:08;4.80;;;4.25;;
57778;SDS011;43608;49.486;9.640;2023-06-22T00:22:39;4.20;;;3.65;;
57778;SDS011;43608;49.486;9.640;2023-06-22T00:23:09;4.47;;;3.60;;
57778;SDS011;43608;49.486;9.640;2023-06-22T00:23:39;4.47;;;3.90;;
57778;SDS011;43608;49.486;9.640;2023-06-22T00:24:11;4.38;;;3.88;;
57778;SDS011;43608;49.486;9.640;2023-06-22T00:24:41;4.30;;;3.70;;
57778;SDS011;43608;49.486;9.640;2023-06-22T00:25:12;4.20;;;3.47;;
57778;SDS011;43608;49.486;9.640;2023-06-22T00:25:42;5.05;;;3.88;;
57778;SDS011;43608;49.486;9.640;2023-06-22T00:26:13;4.43;;;3.90;;
57778;SDS011;43608;49.486;9.640;2023-06-22T00:26:43;4.05;;;3.50;;
57778;SDS011;43608;49.486;9.640;2023-06-22T00:27:14;4.63;;;3.40;;
57778;SDS011;43608;49.486;9.640;2023-06-22T00:27:44;4.25;;;3.55;;
57778;SDS011;43608;49.486;9.640;2023-06-22T00:28:14;3.80;;;3.40;;
57778;SDS011;43608;49.486;9.640;2023-06-22T00:28:45;4.47;;;3.55;;
57778;SDS011;43608;49.486;9.640;2023-06-22T00:29:15;4.28;;;3.60;;
57778;SDS011;43608;49.486;9.640;2023-06-22T00:29:46;4.00;;;3.53;;
57778;SDS011;43608;49.486;9.640;2023-06-22T00:30:17;3.97;;;3.40;;
57778;SDS011;43608;49.486;9.640;2023-06-22T00:30:48;3.88;;;3.30;;
57778;SDS011;43608;49.486;9.640;2023-06-22T00:31:19;3.90;;;3.40;;
57778;SDS011;43608;49.486;9.640;2023-06-22T00:31:49;3.60;;;3.30;;
57778;SDS011;43608;49.486;9.640;2023-06-22T00:32:19;3.92;;;3.28;;
57778;SDS011;43608;49.486;9.640;2023-06-22T00:32:50;4.32;;;3.40;;
57778;SDS011;43608;49.486;9.640;2023-06-22T00:33:20;4.18;;;3.40;;
57778;SDS011;43608;49.486;9.640;2023-06-22T00:33:50;3.83;;;3.40;;
57778;SDS011;43608;49.486;9.640;2023-06-22T00:34:21;3.83;;;3.42;;
57778;SDS011;43608;49.486;9.640;2023-06-22T00:34:51;4.22;;;3.40;;
57778;SDS011;43608;49.486;9.640;2023-06-22T00:35:21;3.85;;;3.35;;
57778;SDS011;43608;49.486;9.640;2023-06-22T00:35:52;3.70;;;3.30;;
57778;SDS011;43608;49.486;9.640;2023-06-22T00:36:25;3.80;;;3.20;;
57778;SDS011;43608;49.486;9.640;2023-06-22T00:36:55;4.25;;;3.30;;
57778;SDS011;43608;49.486;9.640;2023-06-22T00:37:26;3.55;;;3.20;;
57778;SDS011;43608;49.486;9.640;2023-06-22T00:37:59;4.18;;;3.55;;
57778;SDS011;43608;49.486;9.640;2023-06-22T00:38:30;3.50;;;3.20;;
57778;SDS011;43608;49.486;9.640;2023-06-22T00:39:01;3.40;;;3.00;;
57778;SDS011;43608;49.486;9.640;2023-06-22T00:39:31;3.30;;;2.97;;
57778;SDS011;43608;49.486;9.640;2023-06-22T00:40:03;3.53;;;3.00;;
57778;SDS011;43608;49.486;9.640;2023-06-22T00:40:35;4.28;;;3.30;;
57778;SDS011;43608;49.486;9.640;2023-06-22T00:41:05;3.42;;;3.08;;
57778;SDS011;43608;49.486;9.640;2023-06-22T00:41:36;4.20;;;3.47;;
57778;SDS011;43608;49.486;9.640;2023-06-22T00:42:06;4.22;;;3.40;;
57778;SDS011;43608;49.486;9.640;2023-06-22T00:42:37;4.10;;;3.60;;
57778;SDS011;43608;49.486;9.640;2023-06-22T00:43:08;3.78;;;3.30;;
57778;SDS011;43608;49.486;9.640;2023-06-22T00:43:39;4.35;;;3.70;;
57778;SDS011;43608;49.486;9.640;2023-06-22T00:44:10;3.80;;;3.40;;
57778;SDS011;43608;49.486;9.640;2023-06-22T00:44:41;4.63;;;3.80;;
57778;SDS011;43608;49.486;9.640;2023-06-22T00:45:11;3.90;;;3.50;;
57778;SDS011;43608;49.486;9.640;2023-06-22T00:45:41;3.70;;;3.30;;
57778;SDS011;43608;49.486;9.640;2023-06-22T00:46:12;4.00;;;3.50;;
57778;SDS011;43608;49.486;9.640;2023-06-22T00:46:42;3.90;;;3.30;;
57778;SDS011;43608;49.486;9.640;2023-06-22T00:47:13;4.22;;;3.13;;
57778;SDS011;43608;49.486;9.640;2023-06-22T00:47:46;3.67;;;3.28;;
57778;SDS011;43608;49.486;9.640;2023-06-22T00:48:16;3.50;;;3.15;;
57778;SDS011;43608;49.486;9.640;2023-06-22T00:48:47;3.80;;;3.13;;
57778;SDS011;43608;49.486;9.640;2023-06-22T00:49:17;4.72;;;3.63;;
57778;SDS011;43608;49.486;9.640;2023-06-22T00:49:48;3.60;;;3.22;;
57778;SDS011;43608;49.486;9.640;2023-06-22T00:50:21;3.80;;;3.28;;
57778;SDS011;43608;49.486;9.640;2023-06-22T00:50:52;3.80;;;3.25;;
57778;SDS011;43608;49.486;9.640;2023-06-22T00:51:25;4.90;;;3.45;;
57778;SDS011;43608;49.486;9.640;2023-06-22T00:51:57;3.75;;;3.33;;
57778;SDS011;43608;49.486;9.640;2023-06-22T00:52:27;3.67;;;3.20;;
57778;SDS011;43608;49.486;9.640;2023-06-22T00:53:00;3.65;;;3.10;;
57778;SDS011;43608;49.486;9.640;2023-06-22T00:53:34;3.92;;;3.30;;
57778;SDS011;43608;49.486;9.640;2023-06-22T00:54:07;4.20;;;3.55;;
57778;SDS011;43608;49.486;9.640;2023-06-22T00:54:37;3.88;;;3.40;;
57778;SDS011;43608;49.486;9.640;2023-06-22T00:55:07;3.78;;;3.15;;
57778;SDS011;43608;49.486;9.640;2023-06-22T00:55:39;3.42;;;3.13;;
57778;SDS011;43608;49.486;9.640;2023-06-22T00:56:16;3.55;;;3.22;;
57778;SDS011;43608;49.486;9.640;2023-06-22T00:56:50;4.10;;;3.17;;
57778;SDS011;43608;49.486;9.640;2023-06-22T00:57:24;3.30;;;2.90;;
57778;SDS011;43608;49.486;9.640;2023-06-22T00:57:57;3.78;;;3.00;;
57778;SDS011;43608;49.486;9.640;2023-06-22T00:58:28;3.83;;;3.30;;
57778;SDS011;43608;49.486;9.640;2023-06-22T00:58:58;3.75;;;3.33;;
57778;SDS011;43608;49.486;9.640;2023-06-22T00:59:30;3.90;;;3.30;;
57778;SDS011;43608;49.486;9.640;2023-06-22T01:00:02;4.03;;;3.50;;
57778;SDS011;43608;49.486;9.640;2023-06-22T01:00:38;3.60;;;3.10;;
57778;SDS011;43608;49.486;9.640;2023-06-22T01:01:09;3.70;;;3.17;;
57778;SDS011;43608;49.486;9.640;2023-06-22T01:01:39;3.70;;;3.30;;
57778;SDS011;43608;49.486;9.640;2023-06-22T01:02:11;3.67;;;3.17;;
57778;SDS011;43608;49.486;9.640;2023-06-22T01:02:41;3.60;;;3.15;;
57778;SDS011;43608;49.486;9.640;2023-06-22T01:03:15;3.50;;;3.00;;
57778;SDS011;43608;49.486;9.640;2023-06-22T01:03:46;4.00;;;3.20;;
57778;SDS011;43608;49.486;9.640;2023-06-22T01:04:17;3.95;;;3.30;;
57778;SDS011;43608;49.486;9.640;2023-06-22T01:04:48;3.80;;;3.25;;
57778;SDS011;43608;49.486;9.640;2023-06-22T01:05:19;3.63;;;3.20;;
57778;SDS011;43608;49.486;9.640;2023-06-22T01:05:50;3.40;;;3.00;;
57778;SDS011;43608;49.486;9.640;2023-06-22T01:06:26;4.18;;;3.08;;
57778;SDS011;43608;49.486;9.640;2023-06-22T01:08:16;3.67;;;3.25;;
57778;SDS011;43608;49.486;9.640;2023-06-22T01:08:58;3.83;;;3.20;;
57778;SDS011;43608;49.486;9.640;2023-06-22T01:09:37;3.97;;;3.40;;
57778;SDS011;43608;49.486;9.640;2023-06-22T01:10:32;4.05;;;3.50;;
57778;SDS011;43608;49.486;9.640;2023-06-22T01:11:25;4.00;;;3.35;;
57778;SDS011;43608;49.486;9.640;2023-06-22T01:12:02;3.92;;;3.50;;
57778;SDS011;43608;49.486;9.640;2023-06-22T01:12:38;3.65;;;3.28;;
57778;SDS011;43608;49.486;9.640;2023-06-22T01:14:23;3.63;;;3.17;;
57778;SDS011;43608;49.486;9.640;2023-06-22T01:15:04;4.05;;;3.38;;
57778;SDS011;43608;49.486;9.640;2023-06-22T01:15:40;3.60;;;3.30;;
57778;SDS011;43608;49.486;9.640;2023-06-22T01:16:26;3.92;;;3.53;;
57778;SDS011;43608;49.486;9.640;2023-06-22T01:16:59;3.75;;;3.30;;
57778;SDS011;43608;49.486;9.640;2023-06-22T01:17:31;3.90;;;3.40;;
57778;SDS011;43608;49.486;9.640;2023-06-22T01:18:03;3.75;;;3.30;;
57778;SDS011;43608;49.486;9.640;2023-06-22T01:18:35;3.67;;;3.20;;
57778;SDS011;43608;49.486;9.640;2023-06-22T01:19:54;3.80;;;3.40;;
57778;SDS011;43608;49.486;9.640;2023-06-22T01:20:13;3.70;;;3.20;;
57778;SDS011;43608;49.486;9.640;2023-06-22T01:20:45;4.03;;;3.40;;
57778;SDS011;43608;49.486;9.640;2023-06-22T01:21:17;4.18;;;3.50;;
57778;SDS011;43608;49.486;9.640;2023-06-22T01:21:50;3.90;;;3.28;;
57778;SDS011;43608;49.486;9.640;2023-06-22T01:22:28;3.78;;;3.33;;
57778;SDS011;43608;49.486;9.640;2023-06-22T01:23:53;4.00;;;3.50;;
57778;SDS011;43608;49.486;9.640;2023-06-22T01:26:22;3.78;;;3.15;;
57778;SDS011;43608;49.486;9.640;2023-06-22T01:28:03;4.10;;;3.50;;
57778;SDS011;43608;49.486;9.640;2023-06-22T01:28:49;4.03;;;3.47;;
57778;SDS011;43608;49.486;9.640;2023-06-22T01:29:21;4.35;;;3.25;;
57778;SDS011;43608;49.486;9.640;2023-06-22T01:29:57;4.10;;;3.70;;
57778;SDS011;43608;49.486;9.640;2023-06-22T01:30:34;3.85;;;3.42;;
57778;SDS011;43608;49.486;9.640;2023-06-22T01:31:05;3.40;;;3.10;;
57778;SDS011;43608;49.486;9.640;2023-06-22T01:31:39;3.67;;;3.30;;
57778;SDS011;43608;49.486;9.640;2023-06-22T01:32:11;3.70;;;3.25;;
57778;SDS011;43608;49.486;9.640;2023-06-22T01:32:43;4.32;;;3.60;;
57778;SDS011;43608;49.486;9.640;2023-06-22T01:33:14;3.70;;;3.30;;
57778;SDS011;43608;49.486;9.640;2023-06-22T01:33:47;4.13;;;3.38;;
57778;SDS011;43608;49.486;9.640;2023-06-22T01:34:21;4.70;;;3.45;;
57778;SDS011;43608;49.486;9.640;2023-06-22T01:34:53;3.85;;;3.45;;
57778;SDS011;43608;49.486;9.640;2023-06-22T01:35:23;4.40;;;3.78;;
57778;SDS011;43608;49.486;9.640;2023-06-22T01:35:55;4.13;;;3.60;;
57778;SDS011;43608;49.486;9.640;2023-06-22T01:36:25;4.60;;;4.03;;
57778;SDS011;43608;49.486;9.640;2023-06-22T01:36:57;7.63;;;4.70;;
57778;SDS011;43608;49.486;9.640;2023-06-22T01:37:29;5.30;;;4.80;;
57778;SDS011;43608;49.486;9.640;2023-06-22T01:38:02;6.43;;;5.05;;
57778;SDS011;43608;49.486;9.640;2023-06-22T01:38:33;5.85;;;4.65;;
57778;SDS011;43608;49.486;9.640;2023-06-22T01:39:04;6.97;;;4.95;;
57778;SDS011;43608;49.486;9.640;2023-06-22T01:39:35;5.40;;;4.90;;
57778;SDS011;43608;49.486;9.640;2023-06-22T01:40:06;6.38;;;4.80;;
57778;SDS011;43608;49.486;9.640;2023-06-22T01:40:38;7.03;;;4.90;;
57778;SDS011;43608;49.486;9.640;2023-06-22T01:41:08;6.45;;;4.95;;
57778;SDS011;43608;49.486;9.640;2023-06-22T01:41:39;6.85;;;5.07;;
57778;SDS011;43608;49.486;9.640;2023-06-22T01:42:12;7.70;;;5.40;;
57778;SDS011;43608;49.486;9.640;2023-06-22T01:42:43;6.40;;;5.20;;
57778;SDS011;43608;49.486;9.640;2023-06-22T01:43:14;10.38;;;5.70;;
57778;SDS011;43608;49.486;9.640;2023-06-22T01:43:45;5.60;;;5.05;;
57778;SDS011;43608;49.486;9.640;2023-06-22T01:44:15;6.65;;;4.82;;
57778;SDS011;43608;49.486;9.640;2023-06-22T01:44:46;5.30;;;4.60;;
57778;SDS011;43608;49.486;9.640;2023-06-22T01:45:17;5.93;;;5.32;;
57778;SDS011;43608;49.486;9.640;2023-06-22T01:45:49;6.05;;;4.70;;
57778;SDS011;43608;49.486;9.640;2023-06-22T01:46:20;5.00;;;4.50;;
57778;SDS011;43608;49.486;9.640;2023-06-22T01:46:52;6.22;;;4.85;;
57778;SDS011;43608;49.486;9.640;2023-06-22T01:47:22;6.15;;;4.88;;
57778;SDS011;43608;49.486;9.640;2023-06-22T01:47:54;5.60;;;4.80;;
57778;SDS011;43608;49.486;9.640;2023-06-22T01:48:25;5.43;;;4.78;;
57778;SDS011;43608;49.486;9.640;2023-06-22T01:48:59;5.28;;;4.78;;
57778;SDS011;43608;49.486;9.640;2023-06-22T01:49:29;5.28;;;4.78;;
57778;SDS011;43608;49.486;9.640;2023-06-22T01:50:00;5.78;;;5.18;;
57778;SDS011;43608;49.486;9.640;2023-06-22T01:50:31;8.27;;;5.72;;
57778;SDS011;43608;49.486;9.640;2023-06-22T01:51:02;7.20;;;5.70;;
57778;SDS011;43608;49.486;9.640;2023-06-22T01:51:33;6.20;;;5.60;;
57778;SDS011;43608;49.486;9.640;2023-06-22T01:52:03;6.80;;;5.68;;
57778;SDS011;43608;49.486;9.640;2023-06-22T01:52:34;6.55;;;5.85;;
57778;SDS011;43608;49.486;9.640;2023-06-22T01:53:04;8.18;;;5.70;;
57778;SDS011;43608;49.486;9.640;2023-06-22T01:53:36;5.95;;;5.18;;
57778;SDS011;43608;49.486;9.640;2023-06-22T01:54:07;6.80;;;5.70;;
57778;SDS011;43608;49.486;9.640;2023-06-22T01:54:39;7.53;;;6.20;;
57778;SDS011;43608;49.486;9.640;2023-06-22T01:55:10;6.47;;;5.78;;
57778;SDS011;43608;49.486;9.640;2023-06-22T01:55:40;6.88;;;6.18;;
57778;SDS011;43608;49.486;9.640;2023-06-22T01:56:11;6.68;;;5.70;;
57778;SDS011;43608;49.486;9.640;2023-06-22T01:56:41;6.32;;;5.57;;
57778;SDS011;43608;49.486;9.640;2023-06-22T01:57:12;5.47;;;4.90;;
57778;SDS011;43608;49.486;9.640;2023-06-22T01:57:42;4.93;;;4.43;;
57778;SDS011;43608;49.486;9.640;2023-06-22T01:58:13;5.20;;;4.60;;
57778;SDS011;43608;49.486;9.640;2023-06-22T01:58:46;5.25;;;4.75;;
57778;SDS011;43608;49.486;9.640;2023-06-22T01:59:29;5.35;;;4.72;;
57778;SDS011;43608;49.486;9.640;2023-06-22T02:00:06;4.95;;;4.43;;
57778;SDS011;43608;49.486;9.640;2023-06-22T02:00:40;5.13;;;4.35;;
57778;SDS011;43608;49.486;9.640;2023-06-22T02:01:20;4.97;;;4.30;;
57778;SDS011;43608;49.486;9.640;2023-06-22T02:02:01;5.05;;;4.55;;
57778;SDS011;43608;49.486;9.640;2023-06-22T02:03:14;5.05;;;4.30;;
57778;SDS011;43608;49.486;9.640;2023-06-22T02:03:55;7.30;;;5.30;;
57778;SDS011;43608;49.486;9.640;2023-06-22T02:04:52;7.53;;;5.10;;
57778;SDS011;43608;49.486;9.640;2023-06-22T02:05:29;5.35;;;4.75;;
57778;SDS011;43608;49.486;9.640;2023-06-22T02:06:10;6.15;;;5.22;;
57778;SDS011;43608;49.486;9.640;2023-06-22T02:06:46;7.85;;;5.57;;
57778;SDS011;43608;49.486;9.640;2023-06-22T02:07:20;8.10;;;6.32;;
57778;SDS011;43608;49.486;9.640;2023-06-22T02:08:09;7.35;;;6.10;;
57778;SDS011;43608;49.486;9.640;2023-06-22T02:08:46;6.60;;;5.47;;
57778;SDS011;43608;49.486;9.640;2023-06-22T02:09:19;5.28;;;4.78;;
57778;SDS011;43608;49.486;9.640;2023-06-22T02:09:52;6.35;;;5.15;;
57778;SDS011;43608;49.486;9.640;2023-06-22T02:10:24;5.53;;;4.93;;
57778;SDS011;43608;49.486;9.640;2023-06-22T02:10:57;5.72;;;5.13;;
57778;SDS011;43608;49.486;9.640;2023-06-22T02:11:30;5.57;;;4.88;;
57778;SDS011;43608;49.486;9.640;2023-06-22T02:12:02;5.15;;;4.50;;
57778;SDS011;43608;49.486;9.640;2023-06-22T02:12:34;6.03;;;4.85;;
57778;SDS011;43608;49.486;9.640;2023-06-22T02:13:07;5.65;;;5.10;;
57778;SDS011;43608;49.486;9.640;2023-06-22T02:13:38;6.32;;;5.28;;
57778;SDS011;43608;49.486;9.640;2023-06-22T02:14:13;6.30;;;5.28;;
57778;SDS011;43608;49.486;9.640;2023-06-22T02:14:44;5.55;;;5.05;;
57778;SDS011;43608;49.486;9.640;2023-06-22T02:15:16;6.65;;;5.30;;
57778;SDS011;43608;49.486;9.640;2023-06-22T02:15:47;7.90;;;5.88;;
57778;SDS011;43608;49.486;9.640;2023-06-22T02:16:18;7.72;;;6.07;;
57778;SDS011;43608;49.486;9.640;2023-06-22T02:16:49;8.75;;;6.65;;
57778;SDS011;43608;49.486;9.640;2023-06-22T02:17:21;9.48;;;7.45;;
57778;SDS011;43608;49.486;9.640;2023-06-22T02:17:51;11.27;;;7.45;;
57778;SDS011;43608;49.486;9.640;2023-06-22T02:18:22;9.75;;;7.00;;
57778;SDS011;43608;49.486;9.640;2023-06-22T02:18:52;8.52;;;6.75;;
57778;SDS011;43608;49.486;9.640;2023-06-22T02:19:23;8.23;;;6.88;;
57778;SDS011;43608;49.486;9.640;2023-06-22T02:19:54;9.80;;;6.75;;
57778;SDS011;43608;49.486;9.640;2023-06-22T02:20:25;8.82;;;6.95;;
57778;SDS011;43608;49.486;9.640;2023-06-22T02:20:55;10.27;;;7.60;;
57778;SDS011;43608;49.486;9.640;2023-06-22T02:21:25;9.55;;;7.35;;
57778;SDS011;43608;49.486;9.640;2023-06-22T02:21:56;8.20;;;6.93;;
57778;SDS011;43608;49.486;9.640;2023-06-22T02:22:26;8.35;;;7.55;;
57778;SDS011;43608;49.486;9.640;2023-06-22T02:22:56;8.20;;;6.90;;
57778;SDS011;43608;49.486;9.640;2023-06-22T02:23:27;9.68;;;7.00;;
57778;SDS011;43608;49.486;9.640;2023-06-22T02:23:58;7.40;;;6.70;;
57778;SDS011;43608;49.486;9.640;2023-06-22T02:24:28;7.10;;;6.40;;
57778;SDS011;43608;49.486;9.640;2023-06-22T02:25:01;6.93;;;6.22;;
57778;SDS011;43608;49.486;9.640;2023-06-22T02:25:31;7.45;;;6.40;;
57778;SDS011;43608;49.486;9.640;2023-06-22T02:26:02;6.32;;;5.70;;
57778;SDS011;43608;49.486;9.640;2023-06-22T02:26:33;6.93;;;6.10;;
57778;SDS011;43608;49.486;9.640;2023-06-22T02:27:04;8.10;;;6.05;;
57778;SDS011;43608;49.486;9.640;2023-06-22T02:27:37;6.80;;;6.20;;
57778;SDS011;43608;49.486;9.640;2023-06-22T02:28:10;6.60;;;5.70;;
57778;SDS011;43608;49.486;9.640;2023-06-22T02:28:40;7.03;;;6.07;;
57778;SDS011;43608;49.486;9.640;2023-06-22T02:29:11;6.80;;;5.80;;
57778;SDS011;43608;49.486;9.640;2023-06-22T02:29:41;6.63;;;5.88;;
57778;SDS011;43608;49.486;9.640;2023-06-22T02:30:12;6.55;;;5.95;;
57778;SDS011;43608;49.486;9.640;2023-06-22T02:30:42;6.70;;;6.00;;
57778;SDS011;43608;49.486;9.640;2023-06-22T02:31:13;7.45;;;6.00;;
57778;SDS011;43608;49.486;9.640;2023-06-22T02:31:43;6.88;;;5.72;;
57778;SDS011;43608;49.486;9.640;2023-06-22T02:32:13;7.28;;;6.32;;
57778;SDS011;43608;49.486;9.640;2023-06-22T02:32:45;6.30;;;5.70;;
57778;SDS011;43608;49.486;9.640;2023-06-22T02:33:15;6.63;;;5.90;;
57778;SDS011;43608;49.486;9.640;2023-06-22T02:33:45;8.82;;;5.88;;
57778;SDS011;43608;49.486;9.640;2023-06-22T02:34:16;7.25;;;6.40;;
57778;SDS011;43608;49.486;9.640;2023-06-22T02:34:48;7.30;;;6.50;;
57778;SDS011;43608;49.486;9.640;2023-06-22T02:35:18;7.65;;;6.75;;
57778;SDS011;43608;49.486;9.640;2023-06-22T02:35:49;8.55;;;6.78;;
57778;SDS011;43608;49.486;9.640;2023-06-22T02:36:19;8.27;;;6.38;;
57778;SDS011;43608;49.486;9.640;2023-06-22T02:36:52;7.65;;;6.53;;
57778;SDS011;43608;49.486;9.640;2023-06-22T02:37:22;7.10;;;6.18;;
57778;SDS011;43608;49.486;9.640;2023-06-22T02:37:55;7.57;;;6.22;;
57778;SDS011;43608;49.486;9.640;2023-06-22T02:38:25;7.20;;;6.47;;
57778;SDS011;43608;49.486;9.640;2023-06-22T02:38:56;8.20;;;7.38;;
57778;SDS011;43608;49.486;9.640;2023-06-22T02:39:28;8.10;;;7.30;;
57778;SDS011;43608;49.486;9.640;2023-06-22T02:39:59;9.32;;;8.32;;
57778;SDS011;43608;49.486;9.640;2023-06-22T02:40:29;8.93;;;8.05;;
57778;SDS011;43608;49.486;9.640;2023-06-22T02:41:00;8.88;;;7.97;;
57778;SDS011;43608;49.486;9.640;2023-06-22T02:41:31;9.30;;;8.07;;
57778;SDS011;43608;49.486;9.640;2023-06-22T02:42:01;8.80;;;7.90;;
57778;SDS011;43608;49.486;9.640;2023-06-22T02:42:32;8.30;;;7.45;;
57778;SDS011;43608;49.486;9.640;2023-06-22T02:43:02;8.10;;;7.30;;
57778;SDS011;43608;49.486;9.640;2023-06-22T02:43:33;9.40;;;8.32;;
57778;SDS011;43608;49.486;9.640;2023-06-22T02:44:03;8.20;;;7.40;;
57778;SDS011;43608;49.486;9.640;2023-06-22T02:44:33;7.72;;;7.03;;
57778;SDS011;43608;49.486;9.640;2023-06-22T02:45:04;7.47;;;6.78;;
57778;SDS011;43608;49.486;9.640;2023-06-22T02:45:34;7.57;;;6.88;;
57778;SDS011;43608;49.486;9.640;2023-06-22T02:46:05;7.07;;;6.38;;
57778;SDS011;43608;49.486;9.640;2023-06-22T02:46:35;6.63;;;5.93;;
57778;SDS011;43608;49.486;9.640;2023-06-22T02:47:06;6.55;;;5.90;;
57778;SDS011;43608;49.486;9.640;2023-06-22T02:47:37;6.65;;;6.00;;
57778;SDS011;43608;49.486;9.640;2023-06-22T02:48:07;6.50;;;5.90;;
57778;SDS011;43608;49.486;9.640;2023-06-22T02:48:38;5.70;;;5.15;;
57778;SDS011;43608;49.486;9.640;2023-06-22T02:49:11;6.43;;;5.82;;
57778;SDS011;43608;49.486;9.640;2023-06-22T02:49:41;6.07;;;5.47;;
57778;SDS011;43608;49.486;9.640;2023-06-22T02:50:14;6.28;;;5.68;;
57778;SDS011;43608;49.486;9.640;2023-06-22T02:50:45;6.25;;;5.60;;
57778;SDS011;43608;49.486;9.640;2023-06-22T02:51:15;5.95;;;5.35;;
57778;SDS011;43608;49.486;9.640;2023-06-22T02:51:48;5.97;;;5.38;;
57778;SDS011;43608;49.486;9.640;2023-06-22T02:52:18;5.75;;;5.18;;
57778;SDS011;43608;49.486;9.640;2023-06-22T02:52:49;5.57;;;5.00;;
57778;SDS011;43608;49.486;9.640;2023-06-22T02:53:19;5.82;;;4.85;;
57778;SDS011;43608;49.486;9.640;2023-06-22T02:53:50;5.38;;;4.88;;
57778;SDS011;43608;49.486;9.640;2023-06-22T02:54:23;5.10;;;4.60;;
57778;SDS011;43608;49.486;9.640;2023-06-22T02:54:54;5.35;;;4.70;;
57778;SDS011;43608;49.486;9.640;2023-06-22T02:55:24;4.65;;;4.25;;
57778;SDS011;43608;49.486;9.640;2023-06-22T02:55:55;4.75;;;4.28;;
57778;SDS011;43608;49.486;9.640;2023-06-22T02:56:25;4.80;;;4.38;;
57778;SDS011;43608;49.486;9.640;2023-06-22T02:56:56;5.07;;;4.57;;
57778;SDS011;43608;49.486;9.640;2023-06-22T02:57:26;4.60;;;4.20;;
57778;SDS011;43608;49.486;9.640;2023-06-22T02:57:57;4.88;;;4.38;;
57778;SDS011;43608;49.486;9.640;2023-06-22T02:58:27;5.05;;;4.50;;
57778;SDS011;43608;49.486;9.640;2023-06-22T02:58:57;4.75;;;4.20;;
57778;SDS011;43608;49.486;9.640;2023-06-22T02:59:31;4.70;;;4.20;;
57778;SDS011;43608;49.486;9.640;2023-06-22T03:00:02;4.70;;;4.30;;
57778;SDS011;43608;49.486;9.640;2023-06-22T03:00:46;4.78;;;4.28;;
57778;SDS011;43608;49.486;9.640;2023-06-22T03:01:16;5.18;;;4.18;;
57778;SDS011;43608;49.486;9.640;2023-06-22T03:01:53;4.93;;;4.20;;
57778;SDS011;43608;49.486;9.640;2023-06-22T03:02:23;5.47;;;4.75;;
57778;SDS011;43608;49.486;9.640;2023-06-22T03:02:54;6.30;;;5.47;;
57778;SDS011;43608;49.486;9.640;2023-06-22T03:03:24;5.30;;;4.80;;
57778;SDS011;43608;49.486;9.640;2023-06-22T03:03:56;5.20;;;4.70;;
57778;SDS011;43608;49.486;9.640;2023-06-22T03:04:27;5.25;;;4.75;;
57778;SDS011;43608;49.486;9.640;2023-06-22T03:04:57;5.15;;;4.57;;
57778;SDS011;43608;49.486;9.640;2023-06-22T03:05:27;5.00;;;4.50;;
57778;SDS011;43608;49.486;9.640;2023-06-22T03:05:57;5.32;;;4.82;;
57778;SDS011;43608;49.486;9.640;2023-06-22T03:06:28;5.13;;;4.63;;
57778;SDS011;43608;49.486;9.640;2023-06-22T03:06:58;4.70;;;4.20;;
57778;SDS011;43608;49.486;9.640;2023-06-22T03:07:31;4.88;;;4.35;;
57778;SDS011;43608;49.486;9.640;2023-06-22T03:08:01;5.00;;;4.50;;
57778;SDS011;43608;49.486;9.640;2023-06-22T03:08:32;5.07;;;4.57;;
57778;SDS011;43608;49.486;9.640;2023-06-22T03:09:03;5.25;;;4.75;;
57778;SDS011;43608;49.486;9.640;2023-06-22T03:09:34;5.40;;;4.55;;
57778;SDS011;43608;49.486;9.640;2023-06-22T03:10:05;4.90;;;4.40;;
57778;SDS011;43608;49.486;9.640;2023-06-22T03:10:36;4.75;;;4.35;;
57778;SDS011;43608;49.486;9.640;2023-06-22T03:11:06;4.47;;;4.07;;
57778;SDS011;43608;49.486;9.640;2023-06-22T03:11:37;4.75;;;4.25;;
57778;SDS011;43608;49.486;9.640;2023-06-22T03:12:08;5.05;;;4.38;;
57778;SDS011;43608;49.486;9.640;2023-06-22T03:12:38;4.63;;;4.00;;
57778;SDS011;43608;49.486;9.640;2023-06-22T03:13:09;4.80;;;4.30;;
57778;SDS011;43608;49.486;9.640;2023-06-22T03:13:39;4.22;;;3.83;;
57778;SDS011;43608;49.486;9.640;2023-06-22T03:14:10;4.25;;;3.85;;
57778;SDS011;43608;49.486;9.640;2023-06-22T03:14:40;4.05;;;3.65;;
57778;SDS011;43608;49.486;9.640;2023-06-22T03:15:11;4.03;;;3.63;;
57778;SDS011;43608;49.486;9.640;2023-06-22T03:15:42;4.25;;;3.80;;
57778;SDS011;43608;49.486;9.640;2023-06-22T03:16:12;3.90;;;3.50;;
57778;SDS011;43608;49.486;9.640;2023-06-22T03:16:43;3.88;;;3.47;;
57778;SDS011;43608;49.486;9.640;2023-06-22T03:17:13;4.03;;;3.63;;
57778;SDS011;43608;49.486;9.640;2023-06-22T03:17:43;4.10;;;3.70;;
57778;SDS011;43608;49.486;9.640;2023-06-22T03:18:14;3.97;;;3.58;;
57778;SDS011;43608;49.486;9.640;2023-06-22T03:18:45;4.35;;;3.95;;
57778;SDS011;43608;49.486;9.640;2023-06-22T03:19:15;4.03;;;3.63;;
57778;SDS011;43608;49.486;9.640;2023-06-22T03:19:46;3.85;;;3.42;;